sensor_id;sensor_type;location;lat;lon;timestamp;temperature;humidity
56322;DHT22;42227;6.376;-10.782;2023-05-10T00:00:21;30.00;94.90
56322;DHT22;42227;6.376;-10.782;2023-05-10T00:02:52;30.20;94.90
56322;DHT22;42227;6.376;-10.782;2023-05-10T00:05:20;30.30;94.40
56322;DHT22;42227;6.376;-10.782;2023-05-10T00:07:49;30.10;95.10
56322;DHT22;42227;6.376;-10.782;2023-05-10T00:10:17;29.90;95.60
56322;DHT22;42227;6.376;-10.782;2023-05-10T00:12:45;30.00;96.00
56322;DHT22;42227;6.376;-10.782;2023-05-10T00:15:14;30.10;95.40
56322;DHT22;42227;6.376;-10.782;2023-05-10T00:17:42;30.10;95.30
56322;DHT22;42227;6.376;-10.782;2023-05-10T00:20:11;30.10;95.40
56322;DHT22;42227;6.376;-10.782;2023-05-10T00:22:39;30.20;94.80
56322;DHT22;42227;6.376;-10.782;2023-05-10T00:25:08;30.30;94.60
56322;DHT22;42227;6.376;-10.782;2023-05-10T00:27:37;30.20;94.60
56322;DHT22;42227;6.376;-10.782;2023-05-10T00:30:08;30.20;95.00
56322;DHT22;42227;6.376;-10.782;2023-05-10T00:32:36;30.20;95.10
56322;DHT22;42227;6.376;-10.782;2023-05-10T00:35:05;30.10;95.30
56322;DHT22;42227;6.376;-10.782;2023-05-10T00:37:34;29.90;95.60
56322;DHT22;42227;6.376;-10.782;2023-05-10T00:40:02;29.90;95.90
56322;DHT22;42227;6.376;-10.782;2023-05-10T00:42:30;30.10;95.40
56322;DHT22;42227;6.376;-10.782;2023-05-10T00:44:59;30.40;94.80
56322;DHT22;42227;6.376;-10.782;2023-05-10T00:47:28;30.50;94.40
56322;DHT22;42227;6.376;-10.782;2023-05-10T00:49:57;30.50;94.50
56322;DHT22;42227;6.376;-10.782;2023-05-10T00:52:25;30.30;94.60
56322;DHT22;42227;6.376;-10.782;2023-05-10T00:54:54;30.20;95.20
56322;DHT22;42227;6.376;-10.782;2023-05-10T00:57:23;30.30;95.30
56322;DHT22;42227;6.376;-10.782;2023-05-10T00:59:52;30.30;95.00
56322;DHT22;42227;6.376;-10.782;2023-05-10T01:02:20;30.30;94.90
56322;DHT22;42227;6.376;-10.782;2023-05-10T01:04:49;30.30;95.50
56322;DHT22;42227;6.376;-10.782;2023-05-10T01:07:18;30.30;95.70
56322;DHT22;42227;6.376;-10.782;2023-05-10T01:09:46;30.20;95.50
56322;DHT22;42227;6.376;-10.782;2023-05-10T01:12:15;30.00;95.80
56322;DHT22;42227;6.376;-10.782;2023-05-10T01:14:44;29.10;92.20
56322;DHT22;42227;6.376;-10.782;2023-05-10T01:17:12;28.50;92.80
56322;DHT22;42227;6.376;-10.782;2023-05-10T01:19:42;28.10;93.80
56322;DHT22;42227;6.376;-10.782;2023-05-10T01:41:54;23.60;99.90
56322;DHT22;42227;6.376;-10.782;2023-05-10T01:44:24;23.80;99.90
56322;DHT22;42227;6.376;-10.782;2023-05-10T01:47:05;24.40;99.90
56322;DHT22;42227;6.376;-10.782;2023-05-10T01:49:47;24.20;99.90
56322;DHT22;42227;6.376;-10.782;2023-05-10T01:52:19;24.30;99.90
56322;DHT22;42227;6.376;-10.782;2023-05-10T01:54:50;24.40;99.90
56322;DHT22;42227;6.376;-10.782;2023-05-10T01:57:23;24.70;99.90
56322;DHT22;42227;6.376;-10.782;2023-05-10T01:59:55;24.70;99.90
56322;DHT22;42227;6.376;-10.782;2023-05-10T02:02:24;24.60;99.90
56322;DHT22;42227;6.376;-10.782;2023-05-10T02:04:55;24.90;99.90
56322;DHT22;42227;6.376;-10.782;2023-05-10T02:07:24;25.10;99.90
56322;DHT22;42227;6.376;-10.782;2023-05-10T02:09:52;25.00;99.90
56322;DHT22;42227;6.376;-10.782;2023-05-10T02:12:23;25.00;99.90
56322;DHT22;42227;6.376;-10.782;2023-05-10T02:14:52;24.70;99.90
56322;DHT22;42227;6.376;-10.782;2023-05-10T02:17:23;24.50;99.90
56322;DHT22;42227;6.376;-10.782;2023-05-10T02:19:53;24.50;99.90
56322;DHT22;42227;6.376;-10.782;2023-05-10T02:22:24;24.50;99.90
56322;DHT22;42227;6.376;-10.782;2023-05-10T02:24:58;24.50;99.90
56322;DHT22;42227;6.376;-10.782;2023-05-10T02:27:28;24.80;99.90
56322;DHT22;42227;6.376;-10.782;2023-05-10T02:29:58;24.80;99.90
56322;DHT22;42227;6.376;-10.782;2023-05-10T02:32:27;25.30;99.90
56322;DHT22;42227;6.376;-10.782;2023-05-10T02:34:57;25.30;99.90
56322;DHT22;42227;6.376;-10.782;2023-05-10T02:37:27;25.40;99.90
56322;DHT22;42227;6.376;-10.782;2023-05-10T02:39:56;25.50;99.90
56322;DHT22;42227;6.376;-10.782;2023-05-10T02:42:27;25.30;99.90
56322;DHT22;42227;6.376;-10.782;2023-05-10T02:45:00;25.10;99.90
56322;DHT22;42227;6.376;-10.782;2023-05-10T02:47:29;25.10;99.90
56322;DHT22;42227;6.376;-10.782;2023-05-10T02:49:57;25.30;99.90
56322;DHT22;42227;6.376;-10.782;2023-05-10T02:52:30;25.30;99.90
56322;DHT22;42227;6.376;-10.782;2023-05-10T02:55:05;25.10;99.90
56322;DHT22;42227;6.376;-10.782;2023-05-10T02:57:34;25.10;99.90
56322;DHT22;42227;6.376;-10.782;2023-05-10T03:00:07;25.10;99.90
56322;DHT22;42227;6.376;-10.782;2023-05-10T03:02:35;25.30;99.90
56322;DHT22;42227;6.376;-10.782;2023-05-10T03:05:04;25.00;99.90
56322;DHT22;42227;6.376;-10.782;2023-05-10T03:07:34;24.80;99.90
56322;DHT22;42227;6.376;-10.782;2023-05-10T03:10:02;24.90;99.90
56322;DHT22;42227;6.376;-10.782;2023-05-10T03:18:21;25.30;99.90
56322;DHT22;42227;6.376;-10.782;2023-05-10T03:20:51;25.30;99.90
56322;DHT22;42227;6.376;-10.782;2023-05-10T03:23:37;25.40;99.90
56322;DHT22;42227;6.376;-10.782;2023-05-10T03:26:07;25.00;99.90
56322;DHT22;42227;6.376;-10.782;2023-05-10T03:28:36;24.90;99.90
56322;DHT22;42227;6.376;-10.782;2023-05-10T03:31:06;24.80;99.90
56322;DHT22;42227;6.376;-10.782;2023-05-10T03:33:34;24.80;99.90
56322;DHT22;42227;6.376;-10.782;2023-05-10T03:36:03;24.90;99.90
56322;DHT22;42227;6.376;-10.782;2023-05-10T03:38:31;25.00;99.90
56322;DHT22;42227;6.376;-10.782;2023-05-10T03:40:59;25.10;99.90
56322;DHT22;42227;6.376;-10.782;2023-05-10T03:43:28;25.40;99.90
56322;DHT22;42227;6.376;-10.782;2023-05-10T03:45:56;25.60;99.90
56322;DHT22;42227;6.376;-10.782;2023-05-10T03:48:24;25.60;99.90
56322;DHT22;42227;6.376;-10.782;2023-05-10T03:50:53;25.50;99.90
56322;DHT22;42227;6.376;-10.782;2023-05-10T03:53:21;25.40;99.90
56322;DHT22;42227;6.376;-10.782;2023-05-10T03:55:49;25.30;99.90
56322;DHT22;42227;6.376;-10.782;2023-05-10T03:58:17;25.40;99.90
56322;DHT22;42227;6.376;-10.782;2023-05-10T04:00:46;25.50;99.90
56322;DHT22;42227;6.376;-10.782;2023-05-10T04:03:14;25.30;99.90
56322;DHT22;42227;6.376;-10.782;2023-05-10T04:05:43;25.30;99.90
56322;DHT22;42227;6.376;-10.782;2023-05-10T04:08:11;25.30;99.90
56322;DHT22;42227;6.376;-10.782;2023-05-10T04:10:40;25.30;99.90
56322;DHT22;42227;6.376;-10.782;2023-05-10T04:13:08;25.20;99.90
56322;DHT22;42227;6.376;-10.782;2023-05-10T04:15:36;25.20;99.90
56322;DHT22;42227;6.376;-10.782;2023-05-10T04:18:04;25.00;99.90
56322;DHT22;42227;6.376;-10.782;2023-05-10T04:20:35;25.00;99.90
56322;DHT22;42227;6.376;-10.782;2023-05-10T04:23:03;24.90;99.90
56322;DHT22;42227;6.376;-10.782;2023-05-10T04:25:34;24.90;99.90
56322;DHT22;42227;6.376;-10.782;2023-05-10T04:28:02;24.90;99.90
56322;DHT22;42227;6.376;-10.782;2023-05-10T04:30:30;24.90;99.90
56322;DHT22;42227;6.376;-10.782;2023-05-10T04:32:59;25.10;99.90
56322;DHT22;42227;6.376;-10.782;2023-05-10T04:35:27;25.00;99.90
56322;DHT22;42227;6.376;-10.782;2023-05-10T04:37:55;25.10;99.90
56322;DHT22;42227;6.376;-10.782;2023-05-10T04:40:24;25.40;99.90
56322;DHT22;42227;6.376;-10.782;2023-05-10T04:42:52;25.40;99.90
56322;DHT22;42227;6.376;-10.782;2023-05-10T04:45:20;25.40;99.90
56322;DHT22;42227;6.376;-10.782;2023-05-10T04:47:48;25.50;99.90
56322;DHT22;42227;6.376;-10.782;2023-05-10T04:50:17;25.40;99.90
56322;DHT22;42227;6.376;-10.782;2023-05-10T04:52:45;25.50;99.90
56322;DHT22;42227;6.376;-10.782;2023-05-10T04:55:13;25.00;99.90
56322;DHT22;42227;6.376;-10.782;2023-05-10T04:57:42;24.90;99.90
56322;DHT22;42227;6.376;-10.782;2023-05-10T05:00:11;24.90;99.90
56322;DHT22;42227;6.376;-10.782;2023-05-10T05:02:42;24.90;99.90
56322;DHT22;42227;6.376;-10.782;2023-05-10T05:05:11;24.90;99.90
56322;DHT22;42227;6.376;-10.782;2023-05-10T05:07:40;24.90;99.90
56322;DHT22;42227;6.376;-10.782;2023-05-10T05:10:09;24.90;99.90
56322;DHT22;42227;6.376;-10.782;2023-05-10T05:12:37;25.20;99.90
56322;DHT22;42227;6.376;-10.782;2023-05-10T05:15:05;25.40;99.90
56322;DHT22;42227;6.376;-10.782;2023-05-10T05:17:36;25.50;99.90
56322;DHT22;42227;6.376;-10.782;2023-05-10T05:20:05;25.60;99.90
56322;DHT22;42227;6.376;-10.782;2023-05-10T05:22:35;25.70;99.90
56322;DHT22;42227;6.376;-10.782;2023-05-10T05:25:03;25.60;99.90
56322;DHT22;42227;6.376;-10.782;2023-05-10T05:27:32;25.40;99.90
56322;DHT22;42227;6.376;-10.782;2023-05-10T05:30:00;25.30;99.90
56322;DHT22;42227;6.376;-10.782;2023-05-10T05:32:29;25.20;99.90
56322;DHT22;42227;6.376;-10.782;2023-05-10T05:34:57;25.10;99.90
56322;DHT22;42227;6.376;-10.782;2023-05-10T05:37:25;25.00;99.90
56322;DHT22;42227;6.376;-10.782;2023-05-10T05:39:53;25.00;99.90
56322;DHT22;42227;6.376;-10.782;2023-05-10T05:42:22;24.90;99.90
56322;DHT22;42227;6.376;-10.782;2023-05-10T05:44:50;24.90;99.90
56322;DHT22;42227;6.376;-10.782;2023-05-10T05:47:18;25.10;99.90
56322;DHT22;42227;6.376;-10.782;2023-05-10T05:49:46;25.20;99.90
56322;DHT22;42227;6.376;-10.782;2023-05-10T05:52:15;24.90;99.90
56322;DHT22;42227;6.376;-10.782;2023-05-10T05:54:43;24.60;99.90
56322;DHT22;42227;6.376;-10.782;2023-05-10T05:57:11;24.60;99.90
56322;DHT22;42227;6.376;-10.782;2023-05-10T05:59:39;24.70;99.90
56322;DHT22;42227;6.376;-10.782;2023-05-10T06:02:10;24.80;99.90
56322;DHT22;42227;6.376;-10.782;2023-05-10T06:04:38;24.90;99.90
56322;DHT22;42227;6.376;-10.782;2023-05-10T06:07:10;24.80;99.90
56322;DHT22;42227;6.376;-10.782;2023-05-10T06:09:39;24.60;99.90
56322;DHT22;42227;6.376;-10.782;2023-05-10T06:12:07;24.60;99.90
56322;DHT22;42227;6.376;-10.782;2023-05-10T06:14:35;24.60;99.90
56322;DHT22;42227;6.376;-10.782;2023-05-10T06:17:04;24.60;99.90
56322;DHT22;42227;6.376;-10.782;2023-05-10T06:19:32;24.50;99.90
56322;DHT22;42227;6.376;-10.782;2023-05-10T06:22:01;24.50;99.90
56322;DHT22;42227;6.376;-10.782;2023-05-10T06:24:29;24.50;99.90
56322;DHT22;42227;6.376;-10.782;2023-05-10T06:26:57;24.50;99.90
56322;DHT22;42227;6.376;-10.782;2023-05-10T06:29:26;24.70;99.90
56322;DHT22;42227;6.376;-10.782;2023-05-10T06:31:54;24.90;99.90
56322;DHT22;42227;6.376;-10.782;2023-05-10T06:34:22;25.10;99.90
56322;DHT22;42227;6.376;-10.782;2023-05-10T06:36:51;25.30;99.90
56322;DHT22;42227;6.376;-10.782;2023-05-10T06:39:19;25.50;99.90
56322;DHT22;42227;6.376;-10.782;2023-05-10T06:41:47;25.50;99.90
56322;DHT22;42227;6.376;-10.782;2023-05-10T06:44:15;25.40;99.90
56322;DHT22;42227;6.376;-10.782;2023-05-10T06:46:44;25.50;99.90
56322;DHT22;42227;6.376;-10.782;2023-05-10T06:49:12;25.40;99.90
56322;DHT22;42227;6.376;-10.782;2023-05-10T06:51:40;25.50;99.90
56322;DHT22;42227;6.376;-10.782;2023-05-10T06:54:09;25.60;99.90
56322;DHT22;42227;6.376;-10.782;2023-05-10T06:56:37;25.50;99.90
56322;DHT22;42227;6.376;-10.782;2023-05-10T06:59:05;25.50;99.90
56322;DHT22;42227;6.376;-10.782;2023-05-10T07:01:34;25.50;99.90
56322;DHT22;42227;6.376;-10.782;2023-05-10T07:04:02;25.30;99.90
56322;DHT22;42227;6.376;-10.782;2023-05-10T07:06:30;25.10;99.90
56322;DHT22;42227;6.376;-10.782;2023-05-10T07:09:00;25.00;99.90
56322;DHT22;42227;6.376;-10.782;2023-05-10T07:11:29;25.00;99.90
56322;DHT22;42227;6.376;-10.782;2023-05-10T07:13:57;25.00;99.90
56322;DHT22;42227;6.376;-10.782;2023-05-10T07:16:25;25.20;99.90
56322;DHT22;42227;6.376;-10.782;2023-05-10T07:18:54;25.30;99.90
56322;DHT22;42227;6.376;-10.782;2023-05-10T07:21:22;25.50;99.90
56322;DHT22;42227;6.376;-10.782;2023-05-10T07:23:51;25.60;99.90
56322;DHT22;42227;6.376;-10.782;2023-05-10T07:26:19;25.60;99.90
56322;DHT22;42227;6.376;-10.782;2023-05-10T07:28:47;25.60;99.90
56322;DHT22;42227;6.376;-10.782;2023-05-10T07:31:15;25.70;99.90
56322;DHT22;42227;6.376;-10.782;2023-05-10T07:33:44;25.60;99.90
56322;DHT22;42227;6.376;-10.782;2023-05-10T07:36:12;25.50;99.90
56322;DHT22;42227;6.376;-10.782;2023-05-10T07:38:40;25.20;99.90
56322;DHT22;42227;6.376;-10.782;2023-05-10T07:41:11;25.00;99.90
56322;DHT22;42227;6.376;-10.782;2023-05-10T07:43:39;25.00;99.90
56322;DHT22;42227;6.376;-10.782;2023-05-10T07:46:08;24.90;99.90
56322;DHT22;42227;6.376;-10.782;2023-05-10T07:48:37;24.90;99.90
56322;DHT22;42227;6.376;-10.782;2023-05-10T07:51:05;24.80;99.90
56322;DHT22;42227;6.376;-10.782;2023-05-10T07:53:33;24.90;99.90
56322;DHT22;42227;6.376;-10.782;2023-05-10T07:58:48;25.30;99.90
56322;DHT22;42227;6.376;-10.782;2023-05-10T08:01:17;25.10;99.90
56322;DHT22;42227;6.376;-10.782;2023-05-10T08:03:45;25.10;99.90
56322;DHT22;42227;6.376;-10.782;2023-05-10T08:06:15;25.00;99.90
56322;DHT22;42227;6.376;-10.782;2023-05-10T08:08:43;24.90;99.90
56322;DHT22;42227;6.376;-10.782;2023-05-10T08:11:11;24.90;99.90
56322;DHT22;42227;6.376;-10.782;2023-05-10T08:13:40;24.90;99.90
56322;DHT22;42227;6.376;-10.782;2023-05-10T08:16:08;24.90;99.90
56322;DHT22;42227;6.376;-10.782;2023-05-10T08:18:37;25.00;99.90
56322;DHT22;42227;6.376;-10.782;2023-05-10T08:21:05;25.00;99.90
56322;DHT22;42227;6.376;-10.782;2023-05-10T08:23:34;25.30;99.90
56322;DHT22;42227;6.376;-10.782;2023-05-10T08:26:02;25.30;99.90
56322;DHT22;42227;6.376;-10.782;2023-05-10T08:28:30;25.10;99.90
56322;DHT22;42227;6.376;-10.782;2023-05-10T08:30:59;25.10;99.90
56322;DHT22;42227;6.376;-10.782;2023-05-10T08:33:27;25.00;99.90
56322;DHT22;42227;6.376;-10.782;2023-05-10T08:35:57;24.80;99.90
56322;DHT22;42227;6.376;-10.782;2023-05-10T08:38:25;25.00;99.90
56322;DHT22;42227;6.376;-10.782;2023-05-10T08:40:55;25.10;99.90
56322;DHT22;42227;6.376;-10.782;2023-05-10T08:43:28;25.00;99.90
56322;DHT22;42227;6.376;-10.782;2023-05-10T08:45:58;25.30;99.90
56322;DHT22;42227;6.376;-10.782;2023-05-10T08:48:29;25.50;99.90
56322;DHT22;42227;6.376;-10.782;2023-05-10T08:50:58;25.40;99.90
56322;DHT22;42227;6.376;-10.782;2023-05-10T08:53:31;25.30;99.90
56322;DHT22;42227;6.376;-10.782;2023-05-10T08:56:02;25.30;99.90
56322;DHT22;42227;6.376;-10.782;2023-05-10T08:58:31;25.30;99.90
56322;DHT22;42227;6.376;-10.782;2023-05-10T09:01:01;25.20;99.90
56322;DHT22;42227;6.376;-10.782;2023-05-10T09:03:30;25.20;99.90
56322;DHT22;42227;6.376;-10.782;2023-05-10T09:05:58;25.30;99.90
56322;DHT22;42227;6.376;-10.782;2023-05-10T09:08:27;25.30;99.90
56322;DHT22;42227;6.376;-10.782;2023-05-10T09:10:55;25.60;99.90
56322;DHT22;42227;6.376;-10.782;2023-05-10T09:13:24;25.70;99.90
56322;DHT22;42227;6.376;-10.782;2023-05-10T09:15:55;25.50;99.90
56322;DHT22;42227;6.376;-10.782;2023-05-10T09:18:30;25.30;99.90
56322;DHT22;42227;6.376;-10.782;2023-05-10T09:20:59;25.40;99.90
56322;DHT22;42227;6.376;-10.782;2023-05-10T09:23:27;25.60;99.90
56322;DHT22;42227;6.376;-10.782;2023-05-10T09:26:05;25.50;99.60
56322;DHT22;42227;6.376;-10.782;2023-05-10T09:28:53;25.60;99.90
56322;DHT22;42227;6.376;-10.782;2023-05-10T09:31:22;26.00;98.60
56322;DHT22;42227;6.376;-10.782;2023-05-10T09:33:51;25.60;99.10
56322;DHT22;42227;6.376;-10.782;2023-05-10T09:36:20;25.40;99.90
56322;DHT22;42227;6.376;-10.782;2023-05-10T09:38:49;25.50;99.90
56322;DHT22;42227;6.376;-10.782;2023-05-10T09:41:21;25.10;99.90
56322;DHT22;42227;6.376;-10.782;2023-05-10T09:43:55;25.40;99.90
56322;DHT22;42227;6.376;-10.782;2023-05-10T09:46:23;25.60;99.90
56322;DHT22;42227;6.376;-10.782;2023-05-10T09:48:52;25.80;99.70
56322;DHT22;42227;6.376;-10.782;2023-05-10T09:51:21;26.00;99.70
56322;DHT22;42227;6.376;-10.782;2023-05-10T09:54:09;26.00;99.30
56322;DHT22;42227;6.376;-10.782;2023-05-10T09:56:38;25.90;99.80
56322;DHT22;42227;6.376;-10.782;2023-05-10T09:59:10;25.70;99.30
56322;DHT22;42227;6.376;-10.782;2023-05-10T10:01:39;25.70;99.80
56322;DHT22;42227;6.376;-10.782;2023-05-10T10:04:09;25.90;99.90
56322;DHT22;42227;6.376;-10.782;2023-05-10T10:06:40;26.20;98.80
56322;DHT22;42227;6.376;-10.782;2023-05-10T10:09:09;26.40;98.10
56322;DHT22;42227;6.376;-10.782;2023-05-10T10:11:38;26.10;99.40
56322;DHT22;42227;6.376;-10.782;2023-05-10T10:14:06;26.10;99.60
56322;DHT22;42227;6.376;-10.782;2023-05-10T10:21:27;26.00;99.90
56322;DHT22;42227;6.376;-10.782;2023-05-10T10:23:56;26.00;99.10
56322;DHT22;42227;6.376;-10.782;2023-05-10T10:26:24;26.30;99.90
56322;DHT22;42227;6.376;-10.782;2023-05-10T10:29:20;26.50;98.40
56322;DHT22;42227;6.376;-10.782;2023-05-10T10:32:09;26.40;98.60
56322;DHT22;42227;6.376;-10.782;2023-05-10T10:34:41;26.40;98.80
56322;DHT22;42227;6.376;-10.782;2023-05-10T10:37:09;26.30;99.60
56322;DHT22;42227;6.376;-10.782;2023-05-10T10:39:38;26.30;99.60
56322;DHT22;42227;6.376;-10.782;2023-05-10T10:42:06;26.30;99.30
56322;DHT22;42227;6.376;-10.782;2023-05-10T10:44:36;26.50;99.00
56322;DHT22;42227;6.376;-10.782;2023-05-10T10:52:28;26.70;98.70
56322;DHT22;42227;6.376;-10.782;2023-05-10T10:55:02;26.60;98.10
56322;DHT22;42227;6.376;-10.782;2023-05-10T10:57:46;26.60;98.40
56322;DHT22;42227;6.376;-10.782;2023-05-10T11:00:22;26.60;98.60
56322;DHT22;42227;6.376;-10.782;2023-05-10T11:05:50;27.30;97.70
56322;DHT22;42227;6.376;-10.782;2023-05-10T11:08:28;27.20;96.40
56322;DHT22;42227;6.376;-10.782;2023-05-10T11:13:37;26.90;98.20
56322;DHT22;42227;6.376;-10.782;2023-05-10T11:16:23;26.90;97.90
56322;DHT22;42227;6.376;-10.782;2023-05-10T11:19:11;27.10;97.80
56322;DHT22;42227;6.376;-10.782;2023-05-10T11:21:50;27.40;98.00
56322;DHT22;42227;6.376;-10.782;2023-05-10T11:24:21;27.50;98.00
56322;DHT22;42227;6.376;-10.782;2023-05-10T11:26:51;27.50;97.20
56322;DHT22;42227;6.376;-10.782;2023-05-10T11:29:19;27.30;97.40
56322;DHT22;42227;6.376;-10.782;2023-05-10T11:31:49;27.30;97.70
56322;DHT22;42227;6.376;-10.782;2023-05-10T11:34:28;27.30;97.60
56322;DHT22;42227;6.376;-10.782;2023-05-10T11:36:57;27.30;97.70
56322;DHT22;42227;6.376;-10.782;2023-05-10T11:39:27;27.70;98.00
56322;DHT22;42227;6.376;-10.782;2023-05-10T11:41:56;28.00;96.80
56322;DHT22;42227;6.376;-10.782;2023-05-10T11:44:32;27.90;96.00
56322;DHT22;42227;6.376;-10.782;2023-05-10T11:47:01;27.80;96.60
56322;DHT22;42227;6.376;-10.782;2023-05-10T11:49:29;27.70;97.20
56322;DHT22;42227;6.376;-10.782;2023-05-10T11:52:08;27.70;97.00
56322;DHT22;42227;6.376;-10.782;2023-05-10T11:54:54;27.80;96.70
56322;DHT22;42227;6.376;-10.782;2023-05-10T11:57:26;28.10;97.50
56322;DHT22;42227;6.376;-10.782;2023-05-10T11:59:57;28.50;95.80
56322;DHT22;42227;6.376;-10.782;2023-05-10T12:02:25;28.40;95.20
56322;DHT22;42227;6.376;-10.782;2023-05-10T12:04:55;28.20;95.90
56322;DHT22;42227;6.376;-10.782;2023-05-10T12:07:25;28.10;96.10
56322;DHT22;42227;6.376;-10.782;2023-05-10T12:10:10;28.10;96.20
56322;DHT22;42227;6.376;-10.782;2023-05-10T12:12:41;28.20;96.90
56322;DHT22;42227;6.376;-10.782;2023-05-10T12:15:21;28.40;96.00
56322;DHT22;42227;6.376;-10.782;2023-05-10T12:17:51;28.70;95.00
56322;DHT22;42227;6.376;-10.782;2023-05-10T12:20:23;28.90;94.00
56322;DHT22;42227;6.376;-10.782;2023-05-10T12:22:54;28.50;95.70
56322;DHT22;42227;6.376;-10.782;2023-05-10T12:25:30;28.60;95.80
56322;DHT22;42227;6.376;-10.782;2023-05-10T12:28:02;28.60;95.80
56322;DHT22;42227;6.376;-10.782;2023-05-10T12:30:32;28.70;96.00
56322;DHT22;42227;6.376;-10.782;2023-05-10T12:33:07;28.80;95.40
56322;DHT22;42227;6.376;-10.782;2023-05-10T12:35:52;29.20;94.30
56322;DHT22;42227;6.376;-10.782;2023-05-10T12:38:37;29.40;93.30
56322;DHT22;42227;6.376;-10.782;2023-05-10T12:41:10;29.20;94.70
56322;DHT22;42227;6.376;-10.782;2023-05-10T12:43:40;29.00;95.00
56322;DHT22;42227;6.376;-10.782;2023-05-10T12:46:13;29.20;95.10
56322;DHT22;42227;6.376;-10.782;2023-05-10T12:48:43;29.40;93.70
56322;DHT22;42227;6.376;-10.782;2023-05-10T12:51:11;29.60;93.20
56322;DHT22;42227;6.376;-10.782;2023-05-10T12:53:40;29.80;92.50
56322;DHT22;42227;6.376;-10.782;2023-05-10T12:56:12;29.80;91.00
56322;DHT22;42227;6.376;-10.782;2023-05-10T12:58:44;29.50;91.30
56322;DHT22;42227;6.376;-10.782;2023-05-10T13:01:14;29.40;92.00
56322;DHT22;42227;6.376;-10.782;2023-05-10T13:03:42;29.20;92.20
56322;DHT22;42227;6.376;-10.782;2023-05-10T13:06:11;29.20;92.40
56322;DHT22;42227;6.376;-10.782;2023-05-10T13:08:39;29.30;92.10
56322;DHT22;42227;6.376;-10.782;2023-05-10T13:11:07;29.30;91.60
56322;DHT22;42227;6.376;-10.782;2023-05-10T13:13:35;29.70;90.30
56322;DHT22;42227;6.376;-10.782;2023-05-10T13:16:04;30.00;89.20
56322;DHT22;42227;6.376;-10.782;2023-05-10T13:18:32;29.90;90.20
56322;DHT22;42227;6.376;-10.782;2023-05-10T13:21:01;29.60;90.70
56322;DHT22;42227;6.376;-10.782;2023-05-10T13:23:31;29.60;90.10
56322;DHT22;42227;6.376;-10.782;2023-05-10T13:26:04;29.50;88.90
56322;DHT22;42227;6.376;-10.782;2023-05-10T13:28:32;29.50;90.70
56322;DHT22;42227;6.376;-10.782;2023-05-10T13:31:01;29.50;87.50
56322;DHT22;42227;6.376;-10.782;2023-05-10T13:33:29;29.60;89.50
56322;DHT22;42227;6.376;-10.782;2023-05-10T13:35:57;29.90;84.10
56322;DHT22;42227;6.376;-10.782;2023-05-10T13:38:28;30.00;81.20
56322;DHT22;42227;6.376;-10.782;2023-05-10T13:40:56;30.20;88.70
56322;DHT22;42227;6.376;-10.782;2023-05-10T13:43:24;30.10;83.20
56322;DHT22;42227;6.376;-10.782;2023-05-10T13:45:52;29.80;86.00
56322;DHT22;42227;6.376;-10.782;2023-05-10T13:48:21;29.70;88.40
56322;DHT22;42227;6.376;-10.782;2023-05-10T13:50:49;29.70;86.80
56322;DHT22;42227;6.376;-10.782;2023-05-10T13:53:17;29.60;86.80
56322;DHT22;42227;6.376;-10.782;2023-05-10T13:55:46;29.70;87.50
56322;DHT22;42227;6.376;-10.782;2023-05-10T13:58:14;29.50;88.30
56322;DHT22;42227;6.376;-10.782;2023-05-10T14:00:43;29.70;86.60
56322;DHT22;42227;6.376;-10.782;2023-05-10T14:03:14;29.70;87.00
56322;DHT22;42227;6.376;-10.782;2023-05-10T14:05:42;29.70;88.60
56322;DHT22;42227;6.376;-10.782;2023-05-10T14:08:12;29.60;89.60
56322;DHT22;42227;6.376;-10.782;2023-05-10T14:10:40;29.80;87.10
56322;DHT22;42227;6.376;-10.782;2023-05-10T14:13:08;29.70;86.50
56322;DHT22;42227;6.376;-10.782;2023-05-10T14:15:37;29.80;87.40
56322;DHT22;42227;6.376;-10.782;2023-05-10T14:18:05;29.80;86.60
56322;DHT22;42227;6.376;-10.782;2023-05-10T14:20:33;29.90;86.40
56322;DHT22;42227;6.376;-10.782;2023-05-10T14:23:01;29.90;85.90
56322;DHT22;42227;6.376;-10.782;2023-05-10T14:25:30;29.90;81.70
56322;DHT22;42227;6.376;-10.782;2023-05-10T14:27:58;30.00;83.50
56322;DHT22;42227;6.376;-10.782;2023-05-10T14:30:26;29.80;84.30
56322;DHT22;42227;6.376;-10.782;2023-05-10T15:59:25;28.80;88.20
56322;DHT22;42227;6.376;-10.782;2023-05-10T16:01:54;28.60;88.50
56322;DHT22;42227;6.376;-10.782;2023-05-10T16:04:22;29.00;89.50
56322;DHT22;42227;6.376;-10.782;2023-05-10T16:06:51;29.20;87.10
56322;DHT22;42227;6.376;-10.782;2023-05-10T16:09:19;28.80;83.20
56322;DHT22;42227;6.376;-10.782;2023-05-10T16:11:47;28.70;85.80
56322;DHT22;42227;6.376;-10.782;2023-05-10T16:14:18;29.00;80.50
56322;DHT22;42227;6.376;-10.782;2023-05-10T16:16:46;29.30;84.50
56322;DHT22;42227;6.376;-10.782;2023-05-10T16:19:15;29.50;85.60
56322;DHT22;42227;6.376;-10.782;2023-05-10T16:21:43;29.60;86.00
56322;DHT22;42227;6.376;-10.782;2023-05-10T16:24:11;29.60;85.10
56322;DHT22;42227;6.376;-10.782;2023-05-10T16:26:40;29.20;83.70
56322;DHT22;42227;6.376;-10.782;2023-05-10T16:29:08;29.10;82.20
56322;DHT22;42227;6.376;-10.782;2023-05-10T16:31:36;28.80;88.90
56322;DHT22;42227;6.376;-10.782;2023-05-10T16:34:05;28.60;87.40
56322;DHT22;42227;6.376;-10.782;2023-05-10T16:36:33;28.60;87.60
56322;DHT22;42227;6.376;-10.782;2023-05-10T16:39:01;28.70;87.60
56322;DHT22;42227;6.376;-10.782;2023-05-10T16:41:33;28.60;87.60
56322;DHT22;42227;6.376;-10.782;2023-05-10T16:44:01;28.70;89.50
56322;DHT22;42227;6.376;-10.782;2023-05-10T16:46:30;28.60;89.80
56322;DHT22;42227;6.376;-10.782;2023-05-10T16:48:58;28.70;89.50
56322;DHT22;42227;6.376;-10.782;2023-05-10T16:51:27;28.60;89.70
56322;DHT22;42227;6.376;-10.782;2023-05-10T16:53:55;28.90;89.80
56322;DHT22;42227;6.376;-10.782;2023-05-10T16:56:23;28.90;88.50
56322;DHT22;42227;6.376;-10.782;2023-05-10T16:58:52;28.80;88.60
56322;DHT22;42227;6.376;-10.782;2023-05-10T17:01:20;28.70;87.30
56322;DHT22;42227;6.376;-10.782;2023-05-10T17:03:52;28.70;89.90
56322;DHT22;42227;6.376;-10.782;2023-05-10T17:06:20;28.40;90.40
56322;DHT22;42227;6.376;-10.782;2023-05-10T17:08:48;28.40;91.00
56322;DHT22;42227;6.376;-10.782;2023-05-10T17:11:17;28.30;90.20
56322;DHT22;42227;6.376;-10.782;2023-05-10T17:13:45;28.40;89.10
56322;DHT22;42227;6.376;-10.782;2023-05-10T17:16:13;28.80;88.80
56322;DHT22;42227;6.376;-10.782;2023-05-10T17:18:42;28.60;87.30
56322;DHT22;42227;6.376;-10.782;2023-05-10T17:21:10;28.60;90.70
56322;DHT22;42227;6.376;-10.782;2023-05-10T17:23:38;28.50;90.20
56322;DHT22;42227;6.376;-10.782;2023-05-10T17:26:07;28.40;90.60
56322;DHT22;42227;6.376;-10.782;2023-05-10T17:28:37;28.40;92.30
56322;DHT22;42227;6.376;-10.782;2023-05-10T17:31:06;28.20;92.30
56322;DHT22;42227;6.376;-10.782;2023-05-10T17:33:34;28.50;92.00
56322;DHT22;42227;6.376;-10.782;2023-05-10T17:36:03;28.70;91.20
56322;DHT22;42227;6.376;-10.782;2023-05-10T17:38:31;28.70;92.10
56322;DHT22;42227;6.376;-10.782;2023-05-10T17:40:59;28.40;92.70